»·PEaware :: DAL319 KLAX-KSBA

DAL319 :: KLAX-KSBA

FLIGHT INFORMATION

Flight Status: Arrived
Operator:
Delta Air Lines
More flights by this operator :: More flights under this callsign
Pilot: Erik K. (18332)
Aircraft: BOEING 737-800
(B738)
More flights by this aircraft type
Origin: KLAX Los Angeles Intl
United States
Destination: KSBA Santa Barbara Mun
United States
More flights between these airports :: More routes between these airports
Route: +VTU8 VTU VTU282R KWANG
File this flight plan on PilotEdge
Remarks: TEC ROUTE LAXP15
Altitude:
(Current/Filed)
10,000ft
Speed:
(Current/Filed)
250kts
Departed: 06-Dec-18 08:39 AM
Arrived: 06-Dec-18 09:17 AM
Distance/Time
Traveled:
77nm/0:37
Distance/Time
To Go:
Arrived

Flight Plot

Page will automatically refresh every two minutes.

Flight plan parsing failed; only flown route is shown


Map Options




Map Legend


Flown Route
Filed Route
Departure Airport
Arrival Airport
Navaid (VOR, NDB)
Fix

Horizontal Profiles

Position Reports

Time Latitude Longitude Heading Altitude Ground
Speed
06-Dec-18 08:11 33.946723 -118.401757 83 122ft 0kts
06-Dec-18 08:12 33.946723 -118.401757 83 122ft 0kts
06-Dec-18 08:13 33.946723 -118.401757 83 122ft 0kts
06-Dec-18 08:14 33.946723 -118.401757 83 122ft 0kts
06-Dec-18 08:15 33.946723 -118.401757 83 122ft 0kts
06-Dec-18 08:16 33.946723 -118.401757 83 122ft 0kts
06-Dec-18 08:17 33.946723 -118.401757 83 122ft 0kts
06-Dec-18 08:18 33.946723 -118.401757 83 122ft 0kts
06-Dec-18 08:19 33.946723 -118.401757 83 122ft 0kts
06-Dec-18 08:20 33.946674 -118.402278 72 122ft 2kts
06-Dec-18 08:21 33.946418 -118.402427 352 123ft 0kts
06-Dec-18 08:22 33.946418 -118.402428 352 123ft 0kts
06-Dec-18 08:23 33.946418 -118.402428 352 123ft 0kts
06-Dec-18 08:24 33.947130 -118.402537 353 123ft 10kts
06-Dec-18 08:25 33.947279 -118.402560 352 123ft 0kts
06-Dec-18 08:26 33.947869 -118.402664 351 122ft 10kts
06-Dec-18 08:27 33.948605 -118.406165 263 126ft 13kts
06-Dec-18 08:28 33.948222 -118.410198 262 127ft 13kts
06-Dec-18 08:29 33.947585 -118.414994 262 125ft 17kts
06-Dec-18 08:30 33.946890 -118.421767 263 121ft 29kts
06-Dec-18 08:31 33.945944 -118.431448 262 110ft 19kts
06-Dec-18 08:32 33.945860 -118.432427 276 109ft 0kts
06-Dec-18 08:33 33.945860 -118.432427 276 109ft 0kts
06-Dec-18 08:34 33.945860 -118.432427 276 109ft 0kts
06-Dec-18 08:35 33.945867 -118.432477 279 109ft 2kts
06-Dec-18 08:36 33.945793 -118.433865 282 109ft 0kts
06-Dec-18 08:37 33.946798 -118.434198 58 112ft 12kts
06-Dec-18 08:38 33.949286 -118.410017 82 178ft 172kts
06-Dec-18 08:39 33.954547 -118.352551 82 998ft 219kts
06-Dec-18 08:40 33.960453 -118.294172 81 1183ft 188kts
06-Dec-18 08:41 33.965266 -118.242150 82 2766ft 198kts
06-Dec-18 08:42 33.971919 -118.182906 66 4368ft 228kts
06-Dec-18 08:43 34.024615 -118.154391 347 5012ft 268kts
06-Dec-18 08:44 34.062033 -118.210327 274 5020ft 268kts
06-Dec-18 08:45 34.067229 -118.290289 273 7247ft 270kts
06-Dec-18 08:46 34.072508 -118.369728 271 9359ft 275kts
06-Dec-18 08:47 34.077986 -118.454063 271 10008ft 279kts
06-Dec-18 08:48 34.083887 -118.545425 271 9983ft 283kts
06-Dec-18 08:49 34.089824 -118.639747 271 10020ft 300kts
06-Dec-18 08:50 34.095833 -118.734841 270 10026ft 299kts
06-Dec-18 08:51 34.101542 -118.826831 270 10031ft 296kts
06-Dec-18 08:52 34.107233 -118.919759 270 9763ft 301kts
06-Dec-18 08:53 34.112903 -119.013423 271 9151ft 289kts
06-Dec-18 08:54 34.133444 -119.096016 295 8249ft 277kts
06-Dec-18 08:55 34.166444 -119.172914 294 8012ft 266kts
06-Dec-18 08:56 34.198441 -119.249224 294 8060ft 282kts
06-Dec-18 08:57 34.233483 -119.333091 295 7618ft 301kts
06-Dec-18 08:58 34.268738 -119.417368 295 6978ft 276kts
06-Dec-18 08:59 34.302528 -119.498187 296 6384ft 277kts
06-Dec-18 09:00 34.310615 -119.585405 262 5984ft 264kts
06-Dec-18 09:01 34.302802 -119.669914 262 5985ft 258kts
06-Dec-18 09:02 34.294451 -119.755154 264 5262ft 258kts
06-Dec-18 09:03 34.283044 -119.840502 262 3986ft 262kts
06-Dec-18 09:04 34.276657 -119.917171 272 3976ft 215kts
06-Dec-18 09:05 34.276946 -119.988538 272 4002ft 228kts
06-Dec-18 09:06 34.277563 -120.066063 272 3979ft 232kts
06-Dec-18 09:07 34.293516 -120.136512 327 3967ft 217kts
06-Dec-18 09:08 34.347238 -120.150011 352 3182ft 196kts
06-Dec-18 09:09 34.390364 -120.141218 50 2953ft 146kts
06-Dec-18 09:11 34.414570 -120.102208 52 2979ft 154kts
06-Dec-18 09:12 34.422950 -120.052831 86 2992ft 155kts
06-Dec-18 09:13 34.424237 -120.004268 86 2476ft 144kts
06-Dec-18 09:14 34.425298 -119.957113 86 1703ft 142kts
06-Dec-18 09:15 34.426297 -119.911109 86 959ft 140kts
06-Dec-18 09:16 34.427344 -119.864233 87 200ft 140kts
06-Dec-18 09:17 34.428023 -119.839060 40 17ft 16kts
06-Dec-18 09:18 34.428731 -119.838921 20 17ft 6kts
06-Dec-18 09:19 34.429015 -119.835724 93 15ft 0kts
06-Dec-18 09:20 34.426715 -119.836976 269 14ft 17kts
06-Dec-18 09:21 34.425262 -119.837590 114 15ft 7kts
06-Dec-18 09:22 34.425152 -119.837287 113 15ft 0kts
06-Dec-18 09:23 34.425152 -119.837287 113 15ft 0kts
06-Dec-18 09:24 34.425153 -119.837287 113 15ft 0kts
06-Dec-18 09:25 34.425153 -119.837287 113 15ft 0kts
06-Dec-18 09:26 34.425153 -119.837287 113 15ft 0kts
06-Dec-18 09:27 34.425153 -119.837287 113 15ft 0kts
06-Dec-18 09:28 34.425153 -119.837287 113 15ft 0kts
06-Dec-18 09:29 34.425153 -119.837287 113 15ft 0kts
06-Dec-18 09:30 34.425153 -119.837287 113 15ft 0kts
06-Dec-18 09:31 34.425153 -119.837287 113 15ft 0kts

Navigation Log

Ident Type
Flight plan parsing failed, navigation log unavailable